SXS412 LTCV-LTCW
Flight info
| Callsign | SXS412 |
|---|---|
| Flight time | 0h 26m |
| Altitude | 19000 |
| Route | 371858N0421147E DCT 372948N0431936E 372948N0432805E 372751N0433016E 372940N0433455E 372905N0434124E 373015N0434310E 373257N0434507E 373606N0434847E 373641N0435103E 373806N0435223E 373915N0435315E 374000N0435324E 374112N0435440E 374147N0435638E 374143N0435952E 374157N0440035E DCT 374229N0440047E 374235N0440115E 374222N0440206E 374226N0440258E 374056N0440332E 374104N0440551E 374042N0440637E 374043N0440724E 373931N0440848E 373924N0440909E DCT 373458N0440934E |
| Aircraft | B738/M-SDGIJ1LRWY/SB1 |
Departure
| Time | 2026-04-27 21:18 |
|---|---|
| Airport | Şırnak Şerafettin Elçi Airport (LTCV) |
Arrival
| Time | 2026-04-27 21:44 |
|---|---|
| Airport | Hakkari Yüksekova Airport (LTCW) |
| Time | Latitude | Longitude | Altitude | Speed | Heading |
|---|---|---|---|---|---|
| 2026-04-27 20:43 | 37.36140 | 42.05779 | 2060 ft | 0 kts | 250° |
| 2026-04-27 21:11 | 37.36140 | 42.05774 | 2060 ft | 2 kts | 260° |
| 2026-04-27 21:11 | 37.36180 | 42.05756 | 2056 ft | 10 kts | 38° |
| 2026-04-27 21:11 | 37.36183 | 42.05860 | 2053 ft | 13 kts | 67° |
| 2026-04-27 21:12 | 37.36265 | 42.05922 | 2050 ft | 12 kts | 25° |
| 2026-04-27 21:12 | 37.36279 | 42.05930 | 2050 ft | 0 kts | 24° |
| 2026-04-27 21:14 | 37.36308 | 42.05947 | 2049 ft | 10 kts | 24° |
| 2026-04-27 21:14 | 37.36373 | 42.05995 | 2049 ft | 11 kts | 47° |
| 2026-04-27 21:15 | 37.36354 | 42.06136 | 2048 ft | 26 kts | 115° |
| 2026-04-27 21:15 | 37.36274 | 42.06343 | 2049 ft | 25 kts | 116° |
| 2026-04-27 21:15 | 37.36195 | 42.06539 | 2051 ft | 24 kts | 117° |
| 2026-04-27 21:15 | 37.36127 | 42.06728 | 2052 ft | 23 kts | 114° |
| 2026-04-27 21:16 | 37.36058 | 42.06912 | 2051 ft | 23 kts | 115° |
| 2026-04-27 21:16 | 37.35986 | 42.07100 | 2048 ft | 24 kts | 114° |
| 2026-04-27 21:16 | 37.35904 | 42.07245 | 2046 ft | 11 kts | 146° |
| 2026-04-27 21:16 | 37.35871 | 42.07313 | 2046 ft | 9 kts | 59° |
| 2026-04-27 21:17 | 37.35916 | 42.07291 | 2046 ft | 9 kts | 295° |
| 2026-04-27 21:17 | 37.35961 | 42.07173 | 2046 ft | 34 kts | 295° |
| 2026-04-27 21:17 | 37.36158 | 42.06655 | 2051 ft | 96 kts | 296° |
| 2026-04-27 21:17 | 37.36533 | 42.05679 | 2052 ft | 149 kts | 295° |
| 2026-04-27 21:18 | 37.37019 | 42.04419 | 2461 ft | 158 kts | 295° |
| 2026-04-27 21:18 | 37.37518 | 42.03162 | 2942 ft | 170 kts | 296° |
| 2026-04-27 21:18 | 37.38052 | 42.01785 | 3333 ft | 183 kts | 296° |
| 2026-04-27 21:18 | 37.38623 | 42.00278 | 3676 ft | 199 kts | 296° |
| 2026-04-27 21:19 | 37.39236 | 41.98652 | 4026 ft | 214 kts | 296° |
| 2026-04-27 21:19 | 37.39896 | 41.96902 | 4374 ft | 229 kts | 296° |
| 2026-04-27 21:19 | 37.40595 | 41.95052 | 4712 ft | 244 kts | 297° |
| 2026-04-27 21:20 | 37.43352 | 41.92851 | 5668 ft | 254 kts | 6° |
| 2026-04-27 21:20 | 37.44987 | 41.93655 | 6182 ft | 259 kts | 41° |
| 2026-04-27 21:20 | 37.45977 | 41.95557 | 6638 ft | 268 kts | 76° |
| 2026-04-27 21:20 | 37.46081 | 41.97875 | 7244 ft | 273 kts | 96° |
| 2026-04-27 21:21 | 37.45569 | 42.00164 | 7925 ft | 275 kts | 119° |
| 2026-04-27 21:21 | 37.44410 | 42.02070 | 8641 ft | 277 kts | 133° |
| 2026-04-27 21:21 | 37.43068 | 42.03809 | 9324 ft | 281 kts | 135° |
| 2026-04-27 21:21 | 37.41709 | 42.05564 | 10053 ft | 283 kts | 134° |
| 2026-04-27 21:22 | 37.40346 | 42.07393 | 10573 ft | 294 kts | 133° |
| 2026-04-27 21:22 | 37.38944 | 42.09329 | 10970 ft | 310 kts | 133° |
| 2026-04-27 21:22 | 37.37451 | 42.11419 | 11365 ft | 325 kts | 133° |
| 2026-04-27 21:22 | 37.35919 | 42.13570 | 11731 ft | 341 kts | 133° |
| 2026-04-27 21:23 | 37.34354 | 42.15873 | 12273 ft | 350 kts | 128° |
| 2026-04-27 21:23 | 37.33118 | 42.18506 | 12938 ft | 357 kts | 114° |
| 2026-04-27 21:23 | 37.32502 | 42.21532 | 13649 ft | 363 kts | 97° |
| 2026-04-27 21:23 | 37.32496 | 42.24673 | 14451 ft | 365 kts | 86° |
| 2026-04-27 21:24 | 37.32835 | 42.27824 | 15140 ft | 371 kts | 81° |
| 2026-04-27 21:24 | 37.33333 | 42.31020 | 15747 ft | 377 kts | 79° |
| 2026-04-27 21:24 | 37.33902 | 42.34264 | 16423 ft | 382 kts | 78° |
| 2026-04-27 21:24 | 37.34481 | 42.37510 | 17085 ft | 387 kts | 79° |
| 2026-04-27 21:25 | 37.35056 | 42.40807 | 17756 ft | 390 kts | 79° |
| 2026-04-27 21:25 | 37.35627 | 42.44175 | 18374 ft | 396 kts | 79° |
| 2026-04-27 21:25 | 37.36186 | 42.47548 | 18889 ft | 400 kts | 79° |
| 2026-04-27 21:25 | 37.36750 | 42.51005 | 18995 ft | 404 kts | 79° |
| 2026-04-27 21:26 | 37.37303 | 42.54411 | 18992 ft | 401 kts | 79° |
| 2026-04-27 21:26 | 37.37855 | 42.57826 | 18995 ft | 401 kts | 79° |
| 2026-04-27 21:26 | 37.38412 | 42.61279 | 19000 ft | 401 kts | 80° |
| 2026-04-27 21:26 | 37.38961 | 42.64700 | 19010 ft | 402 kts | 80° |
| 2026-04-27 21:27 | 37.39517 | 42.68162 | 19024 ft | 402 kts | 81° |
| 2026-04-27 21:27 | 37.40063 | 42.71570 | 19023 ft | 402 kts | 81° |
| 2026-04-27 21:27 | 37.40617 | 42.75029 | 19016 ft | 402 kts | 80° |
| 2026-04-27 21:27 | 37.41166 | 42.78471 | 19026 ft | 402 kts | 81° |
| 2026-04-27 21:28 | 37.41675 | 42.81667 | 19045 ft | 402 kts | 81° |
| 2026-04-27 21:28 | 37.42256 | 42.85323 | 19047 ft | 402 kts | 80° |
| 2026-04-27 21:28 | 37.42807 | 42.88786 | 19052 ft | 402 kts | 81° |
| 2026-04-27 21:28 | 37.43355 | 42.92247 | 19049 ft | 402 kts | 81° |
| 2026-04-27 21:29 | 37.43896 | 42.95668 | 19053 ft | 402 kts | 81° |
| 2026-04-27 21:29 | 37.44438 | 42.99105 | 19049 ft | 403 kts | 81° |
| 2026-04-27 21:29 | 37.44987 | 43.02591 | 19060 ft | 402 kts | 81° |
| 2026-04-27 21:29 | 37.45526 | 43.06024 | 19062 ft | 402 kts | 81° |
| 2026-04-27 21:30 | 37.46069 | 43.09480 | 19071 ft | 402 kts | 81° |
| 2026-04-27 21:30 | 37.46604 | 43.12902 | 19086 ft | 403 kts | 81° |
| 2026-04-27 21:30 | 37.47141 | 43.16341 | 19099 ft | 403 kts | 81° |
| 2026-04-27 21:30 | 37.47683 | 43.19814 | 19086 ft | 403 kts | 81° |
| 2026-04-27 21:31 | 37.48220 | 43.23264 | 19090 ft | 403 kts | 81° |
| 2026-04-27 21:31 | 37.48756 | 43.26711 | 19095 ft | 404 kts | 81° |
| 2026-04-27 21:31 | 37.49267 | 43.30150 | 19097 ft | 402 kts | 83° |
| 2026-04-27 21:31 | 37.49616 | 43.33644 | 19101 ft | 401 kts | 87° |
| 2026-04-27 21:32 | 37.49763 | 43.37147 | 19100 ft | 400 kts | 90° |
| 2026-04-27 21:32 | 37.49794 | 43.40633 | 19091 ft | 400 kts | 92° |
| 2026-04-27 21:32 | 37.49775 | 43.44106 | 19099 ft | 399 kts | 92° |
| 2026-04-27 21:32 | 37.49741 | 43.47546 | 19090 ft | 386 kts | 92° |
| 2026-04-27 21:33 | 37.49714 | 43.50814 | 19094 ft | 362 kts | 93° |
| 2026-04-27 21:33 | 37.49648 | 43.53945 | 19095 ft | 354 kts | 95° |
| 2026-04-27 21:33 | 37.49493 | 43.57039 | 19087 ft | 354 kts | 97° |
| 2026-04-27 21:33 | 37.49271 | 43.60093 | 18912 ft | 350 kts | 98° |
| 2026-04-27 21:34 | 37.49017 | 43.63091 | 18566 ft | 345 kts | 98° |
| 2026-04-27 21:34 | 37.48756 | 43.66074 | 18134 ft | 343 kts | 97° |
| 2026-04-27 21:34 | 37.48945 | 43.69036 | 17710 ft | 345 kts | 76° |
| 2026-04-27 21:34 | 37.50008 | 43.71712 | 17286 ft | 346 kts | 54° |
| 2026-04-27 21:35 | 37.51712 | 43.73822 | 16850 ft | 346 kts | 38° |
| 2026-04-27 21:35 | 37.53726 | 43.75486 | 16431 ft | 344 kts | 32° |
| 2026-04-27 21:35 | 37.55797 | 43.76976 | 15948 ft | 345 kts | 31° |
| 2026-04-27 21:35 | 37.57797 | 43.78637 | 15479 ft | 344 kts | 38° |
| 2026-04-27 21:36 | 37.59398 | 43.80430 | 15080 ft | 341 kts | 51° |
| 2026-04-27 21:36 | 37.60657 | 43.82963 | 14646 ft | 336 kts | 68° |
| 2026-04-27 21:36 | 37.61460 | 43.85720 | 14230 ft | 333 kts | 73° |
| 2026-04-27 21:36 | 37.62462 | 43.88324 | 13952 ft | 328 kts | 53° |
| 2026-04-27 21:37 | 37.64221 | 43.90115 | 13570 ft | 327 kts | 25° |
| 2026-04-27 21:37 | 37.66385 | 43.90737 | 13190 ft | 325 kts | 5° |
| 2026-04-27 21:37 | 37.68498 | 43.91155 | 12767 ft | 322 kts | 20° |
| 2026-04-27 21:37 | 37.70395 | 43.92653 | 12432 ft | 314 kts | 49° |
| 2026-04-27 21:38 | 37.71355 | 43.94777 | 12138 ft | 306 kts | 76° |
| 2026-04-27 21:38 | 37.71390 | 43.97441 | 11801 ft | 308 kts | 103° |
| 2026-04-27 21:38 | 37.70727 | 44.00021 | 11327 ft | 311 kts | 108° |
| 2026-04-27 21:38 | 37.70383 | 44.02685 | 10871 ft | 310 kts | 91° |
| 2026-04-27 21:39 | 37.70213 | 44.05358 | 10441 ft | 308 kts | 102° |
| 2026-04-27 21:39 | 37.69485 | 44.07878 | 10208 ft | 299 kts | 117° |
| 2026-04-27 21:39 | 37.68471 | 44.10084 | 10060 ft | 288 kts | 122° |
| 2026-04-27 21:39 | 37.67341 | 44.12160 | 9695 ft | 286 kts | 130° |
| 2026-04-27 21:40 | 37.65867 | 44.13817 | 9319 ft | 280 kts | 147° |
| 2026-04-27 21:40 | 37.64167 | 44.14926 | 9070 ft | 270 kts | 161° |
| 2026-04-27 21:40 | 37.62380 | 44.15039 | 9058 ft | 252 kts | 195° |
| 2026-04-27 21:40 | 37.60918 | 44.14069 | 9140 ft | 228 kts | 215° |
| 2026-04-27 21:41 | 37.59709 | 44.12909 | 9172 ft | 208 kts | 217° |
| 2026-04-27 21:41 | 37.58619 | 44.11838 | 9171 ft | 190 kts | 217° |
| 2026-04-27 21:41 | 37.57569 | 44.10989 | 9102 ft | 170 kts | 193° |
| 2026-04-27 21:41 | 37.56503 | 44.11215 | 9080 ft | 165 kts | 141° |
| 2026-04-27 21:42 | 37.56069 | 44.12499 | 8718 ft | 168 kts | 83° |
| 2026-04-27 21:42 | 37.56596 | 44.13767 | 8346 ft | 167 kts | 50° |
| 2026-04-27 21:42 | 37.57384 | 44.14841 | 7853 ft | 167 kts | 50° |
| 2026-04-27 21:42 | 37.57771 | 44.16130 | 7435 ft | 163 kts | 96° |
| 2026-04-27 21:43 | 37.57446 | 44.17492 | 7001 ft | 160 kts | 108° |
| 2026-04-27 21:43 | 37.57054 | 44.18777 | 6696 ft | 157 kts | 111° |
| 2026-04-27 21:43 | 37.56595 | 44.20036 | 6492 ft | 159 kts | 115° |
| 2026-04-27 21:43 | 37.56073 | 44.21245 | 6304 ft | 158 kts | 117° |
| 2026-04-27 21:44 | 37.55541 | 44.22454 | 6114 ft | 158 kts | 116° |
| 2026-04-27 21:44 | 37.55063 | 44.23587 | 6102 ft | 123 kts | 117° |
| 2026-04-27 21:44 | 37.54763 | 44.24283 | 6102 ft | 61 kts | 119° |
| 2026-04-27 21:44 | 37.54623 | 44.24606 | 6102 ft | 34 kts | 117° |
| 2026-04-27 21:45 | 37.54513 | 44.24863 | 6101 ft | 32 kts | 120° |
| 2026-04-27 21:45 | 37.54409 | 44.25104 | 6102 ft | 30 kts | 117° |
| 2026-04-27 21:45 | 37.54337 | 44.25287 | 6103 ft | 12 kts | 115° |
| 2026-04-27 21:45 | 37.54352 | 44.25379 | 6104 ft | 10 kts | 46° |
| 2026-04-27 21:46 | 37.54428 | 44.25443 | 6106 ft | 14 kts | 27° |
| 2026-04-27 21:46 | 37.54509 | 44.25497 | 6108 ft | 11 kts | 28° |
| 2026-04-27 21:46 | 37.54571 | 44.25541 | 6109 ft | 8 kts | 29° |
| 2026-04-27 21:46 | 37.54585 | 44.25550 | 6110 ft | 0 kts | 28° |